createdAt,value
2019-02-05T00:01:14.387Z,82.20
2019-02-05T00:03:43.865Z,82.40
2019-02-05T00:06:13.243Z,82.40
2019-02-05T00:08:42.855Z,82.40
2019-02-05T00:11:12.222Z,82.40
2019-02-05T00:13:41.621Z,82.50
2019-02-05T00:16:11.019Z,82.60
2019-02-05T00:18:40.451Z,82.80
2019-02-05T00:21:09.849Z,83.00
2019-02-05T00:23:39.222Z,83.00
2019-02-05T00:26:08.622Z,83.00
2019-02-05T00:28:38.039Z,83.20
2019-02-05T00:31:07.398Z,83.40
2019-02-05T00:33:36.853Z,83.60
2019-02-05T00:36:06.388Z,83.80
2019-02-05T00:38:35.763Z,83.80
2019-02-05T00:41:05.454Z,83.90
2019-02-05T00:43:35.219Z,83.90
2019-02-05T00:46:04.828Z,84.00
2019-02-05T00:48:34.204Z,83.80
2019-02-05T00:51:03.634Z,83.40
2019-02-05T00:53:33.055Z,83.90
2019-02-05T00:56:02.435Z,83.30
2019-02-05T00:58:31.891Z,83.30
2019-02-05T01:01:01.376Z,83.30
2019-02-05T01:03:30.772Z,83.30
2019-02-05T01:06:00.488Z,83.20
2019-02-05T01:08:29.876Z,83.10
2019-02-05T01:10:59.651Z,83.00
2019-02-05T01:13:29.039Z,83.20
2019-02-05T01:15:59.019Z,83.10
2019-02-05T01:18:28.419Z,83.30
2019-02-05T01:20:58.095Z,83.70
2019-02-05T01:23:27.562Z,83.80
2019-02-05T01:25:56.916Z,83.90
2019-02-05T01:28:26.303Z,84.20
2019-02-05T01:30:55.752Z,84.50
2019-02-05T01:33:25.142Z,84.50
2019-02-05T01:35:54.551Z,84.50
2019-02-05T01:38:24.003Z,84.30
2019-02-05T01:40:53.415Z,84.20
2019-02-05T01:43:22.792Z,84.00
2019-02-05T01:45:52.215Z,83.90
2019-02-05T01:48:21.583Z,83.70
2019-02-05T01:50:51.020Z,83.60
2019-02-05T01:53:20.409Z,83.60
2019-02-05T01:55:49.802Z,83.60
2019-02-05T01:58:19.229Z,83.50
2019-02-05T02:00:48.607Z,83.60
2019-02-05T02:03:18.022Z,83.60
2019-02-05T02:05:47.595Z,83.50
2019-02-05T02:08:17.105Z,83.40
2019-02-05T02:10:46.476Z,83.40
2019-02-05T02:13:15.850Z,83.40
2019-02-05T02:15:45.271Z,83.40
2019-02-05T02:18:14.639Z,83.40
2019-02-05T02:20:44.051Z,83.40
2019-02-05T02:23:13.440Z,83.50
2019-02-05T02:25:42.855Z,83.70
2019-02-05T02:28:12.224Z,83.80
2019-02-05T02:30:41.832Z,83.80
2019-02-05T02:33:11.204Z,83.70
2019-02-05T02:35:40.594Z,83.60
2019-02-05T02:38:09.994Z,83.50
2019-02-05T02:40:39.363Z,83.60
2019-02-05T02:43:08.783Z,83.50
2019-02-05T02:45:38.159Z,83.50
2019-02-05T02:48:07.591Z,83.40
2019-02-05T02:50:36.975Z,83.30
2019-02-05T02:53:06.431Z,83.30
2019-02-05T02:55:35.812Z,83.60
2019-02-05T02:58:05.211Z,83.80
2019-02-05T03:00:34.602Z,84.20
2019-02-05T03:03:04.177Z,84.30
2019-02-05T03:05:33.576Z,84.30
2019-02-05T03:08:02.990Z,84.30
2019-02-05T03:10:32.362Z,84.40
2019-02-05T03:13:01.746Z,84.80
2019-02-05T03:15:32.166Z,85.70
2019-02-05T03:18:01.491Z,85.10
2019-02-05T03:20:31.629Z,85.40
2019-02-05T03:23:01.036Z,85.70
2019-02-05T03:25:30.419Z,86.20
2019-02-05T03:27:59.826Z,86.50
2019-02-05T03:30:29.204Z,86.50
2019-02-05T03:32:58.858Z,86.60
2019-02-05T03:35:28.223Z,86.50
2019-02-05T03:37:57.972Z,86.00
2019-02-05T03:41:00.392Z,85.70
2019-02-05T03:43:29.879Z,85.20
2019-02-05T03:46:00.765Z,84.80
2019-02-05T03:48:30.728Z,84.50
2019-02-05T03:51:42.009Z,84.70
2019-02-05T03:55:00.487Z,84.80
2019-02-05T03:57:57.853Z,85.30
2019-02-05T04:01:04.028Z,85.60
2019-02-05T04:04:07.724Z,85.40
2019-02-05T04:07:10.698Z,84.70
2019-02-05T04:10:14.336Z,84.10
2019-02-05T04:13:09.723Z,83.40
2019-02-05T04:15:48.308Z,82.50
2019-02-05T04:19:01.892Z,82.20
2019-02-05T04:22:05.046Z,82.10
2019-02-05T04:25:02.261Z,82.30
2019-02-05T04:28:00.771Z,82.70
2019-02-05T04:30:39.163Z,82.50
2019-02-05T04:33:24.856Z,82.00
2019-02-05T04:36:50.191Z,81.80
2019-02-05T04:40:04.997Z,82.20
2019-02-05T04:43:04.577Z,82.70
2019-02-05T04:46:29.729Z,83.00
2019-02-05T04:49:52.262Z,83.40
2019-02-05T04:53:05.556Z,83.80
2019-02-05T04:55:41.804Z,83.70
2019-02-05T04:58:41.890Z,84.10
2019-02-05T05:01:49.519Z,84.20
2019-02-05T05:04:36.129Z,84.00
2019-02-05T05:07:30.893Z,83.80
2019-02-05T05:10:00.782Z,83.60
2019-02-05T05:12:30.779Z,83.30
2019-02-05T05:15:00.779Z,83.20
2019-02-05T05:17:30.130Z,82.90
2019-02-05T05:19:59.537Z,83.00
2019-02-05T05:22:28.924Z,83.20
2019-02-05T05:24:58.835Z,83.70
2019-02-05T05:27:28.515Z,83.80
2019-02-05T05:29:58.008Z,83.70
2019-02-05T05:32:27.506Z,83.50
2019-02-05T05:34:56.879Z,83.30
2019-02-05T05:37:26.319Z,83.00
2019-02-05T05:39:55.784Z,83.20
2019-02-05T05:42:26.851Z,83.20
2019-02-05T05:44:56.519Z,83.00
2019-02-05T05:47:25.931Z,82.60
2019-02-05T05:49:55.323Z,82.50
2019-02-05T05:52:24.828Z,82.00
2019-02-05T05:54:54.222Z,81.80
2019-02-05T05:57:23.612Z,81.50
2019-02-05T05:59:53.017Z,80.90
2019-02-05T06:02:22.397Z,80.80
2019-02-05T06:04:51.816Z,80.80
2019-02-05T06:07:21.182Z,81.20
2019-02-05T06:09:50.593Z,81.10
2019-02-05T06:12:19.974Z,80.80
2019-02-05T06:14:49.791Z,80.20
2019-02-05T06:17:19.192Z,79.70
2019-02-05T06:19:48.565Z,79.40
2019-02-05T06:22:17.992Z,79.00
2019-02-05T06:24:47.375Z,78.90
2019-02-05T06:27:16.789Z,78.70
2019-02-05T06:29:46.506Z,78.30
2019-02-05T06:32:15.913Z,78.40
2019-02-05T06:34:45.299Z,78.40
2019-02-05T06:37:14.732Z,78.40
2019-02-05T06:39:44.163Z,78.30
2019-02-05T06:42:13.575Z,78.40
2019-02-05T06:44:43.079Z,78.60
2019-02-05T06:47:12.458Z,79.50
2019-02-05T06:49:41.859Z,80.70
2019-02-05T06:52:11.230Z,81.20
2019-02-05T06:54:40.648Z,81.90
2019-02-05T06:57:10.032Z,82.60
2019-02-05T06:59:39.462Z,83.00
2019-02-05T07:02:09.719Z,83.60
2019-02-05T07:04:39.136Z,84.50
2019-02-05T07:07:08.536Z,85.20
2019-02-05T07:09:37.904Z,85.50
2019-02-05T07:12:07.575Z,85.60
2019-02-05T07:14:36.951Z,85.50
2019-02-05T07:17:06.689Z,85.50
2019-02-05T07:19:36.339Z,85.30
2019-02-05T07:22:05.959Z,85.20
2019-02-05T07:24:35.348Z,85.20
2019-02-05T07:27:04.742Z,85.10
2019-02-05T07:29:34.186Z,85.30
2019-02-05T07:32:03.572Z,85.30
2019-02-05T07:34:32.993Z,85.60
2019-02-05T07:37:02.397Z,85.50
2019-02-05T07:39:31.866Z,85.40
2019-02-05T07:42:01.234Z,85.30
2019-02-05T07:44:30.908Z,85.30
2019-02-05T07:47:00.307Z,85.40
2019-02-05T07:49:29.680Z,86.30
2019-02-05T07:51:59.584Z,85.70
2019-02-05T07:54:28.968Z,85.70
2019-02-05T07:56:58.378Z,85.70
2019-02-05T07:59:27.766Z,85.50
2019-02-05T08:01:57.262Z,85.50
2019-02-05T08:04:26.643Z,85.60
2019-02-05T08:06:56.031Z,85.50
2019-02-05T08:09:25.640Z,85.70
2019-02-05T08:11:55.204Z,85.80
2019-02-05T08:14:24.607Z,85.60
2019-02-05T08:16:53.983Z,85.40
2019-02-05T08:19:23.398Z,85.30
2019-02-05T08:21:52.763Z,85.10
2019-02-05T08:24:22.187Z,85.00
2019-02-05T08:26:51.908Z,84.80
2019-02-05T08:29:21.956Z,84.60
2019-02-05T08:31:51.410Z,84.80
2019-02-05T08:34:20.883Z,84.40
2019-02-05T08:36:50.274Z,84.10
2019-02-05T08:39:19.684Z,84.00
2019-02-05T08:41:49.075Z,84.40
2019-02-05T08:44:18.562Z,84.30
2019-02-05T08:46:47.957Z,84.00
2019-02-05T08:49:17.360Z,84.10
2019-02-05T08:51:46.708Z,84.20
2019-02-05T08:54:16.115Z,84.10
2019-02-05T08:56:45.515Z,84.20
2019-02-05T08:59:15.119Z,83.90
2019-02-05T09:01:44.511Z,83.90
2019-02-05T09:04:13.899Z,84.10
2019-02-05T09:06:43.309Z,84.10
2019-02-05T09:09:12.680Z,83.90
2019-02-05T09:11:42.176Z,83.70
2019-02-05T09:14:13.158Z,83.20
2019-02-05T09:16:42.586Z,82.80
2019-02-05T09:19:12.000Z,82.30
2019-02-05T09:21:41.391Z,82.00
2019-02-05T09:24:10.836Z,81.60
2019-02-05T09:26:40.213Z,80.70
2019-02-05T09:29:09.587Z,81.00
2019-02-05T09:31:39.111Z,81.20
2019-02-05T09:34:08.479Z,81.30
2019-02-05T09:36:37.899Z,81.30
2019-02-05T09:39:08.572Z,81.20
2019-02-05T09:41:38.064Z,80.60
2019-02-05T09:44:07.491Z,81.00
2019-02-05T09:46:36.869Z,81.20
2019-02-05T09:49:06.489Z,80.50
2019-02-05T09:51:35.876Z,80.20
2019-02-05T09:54:05.483Z,79.30
2019-02-05T09:56:34.857Z,79.60
2019-02-05T09:59:04.708Z,79.90
2019-02-05T10:01:34.099Z,79.30
2019-02-05T10:04:03.579Z,79.50
2019-02-05T10:06:32.987Z,80.50
2019-02-05T10:09:02.387Z,80.80
2019-02-05T10:11:31.804Z,80.20
2019-02-05T10:14:01.185Z,80.00
2019-02-05T10:16:30.554Z,78.40
2019-02-05T10:18:59.947Z,78.50
2019-02-05T10:21:29.619Z,78.60
2019-02-05T10:23:59.030Z,79.00
2019-02-05T10:26:28.406Z,80.30
2019-02-05T10:28:57.828Z,80.90
2019-02-05T10:31:27.225Z,79.30
2019-02-05T10:33:56.603Z,78.60
2019-02-05T10:36:26.032Z,78.70
2019-02-05T10:38:55.428Z,78.80
2019-02-05T10:41:24.930Z,78.50
2019-02-05T10:43:54.297Z,78.00
2019-02-05T10:46:23.666Z,77.70
2019-02-05T10:48:53.067Z,77.40
2019-02-05T10:51:22.471Z,77.40
2019-02-05T10:53:52.523Z,77.60
2019-02-05T10:56:21.892Z,77.60
2019-02-05T10:58:51.282Z,77.30
2019-02-05T11:01:20.679Z,77.10
2019-02-05T11:03:50.064Z,77.20
2019-02-05T11:06:20.066Z,77.10
2019-02-05T11:08:49.667Z,76.60
2019-02-05T11:11:19.075Z,76.50
2019-02-05T11:13:48.445Z,76.50
2019-02-05T11:16:17.823Z,75.80
2019-02-05T11:18:47.355Z,76.30
2019-02-05T11:21:16.731Z,75.70
2019-02-05T11:23:46.147Z,75.20
2019-02-05T11:26:15.839Z,75.50
2019-02-05T11:28:45.335Z,75.10
2019-02-05T11:31:14.718Z,74.80
2019-02-05T11:33:44.101Z,74.90
2019-02-05T11:36:13.490Z,75.20
2019-02-05T11:38:42.881Z,75.00
2019-02-05T11:41:13.716Z,74.90
2019-02-05T11:43:43.348Z,74.80
2019-02-05T11:46:12.761Z,74.60
2019-02-05T11:48:42.142Z,74.50
2019-02-05T11:51:11.548Z,74.60
2019-02-05T11:53:40.948Z,75.10
2019-02-05T11:56:10.399Z,75.20
2019-02-05T11:58:40.077Z,75.20
2019-02-05T12:01:22.400Z,75.30
2019-02-05T12:03:51.888Z,75.60
2019-02-05T12:06:21.310Z,75.40
2019-02-05T12:08:50.687Z,74.50
2019-02-05T12:11:20.064Z,74.20
2019-02-05T12:13:49.479Z,73.50
2019-02-05T12:16:18.867Z,72.60
2019-02-05T12:18:48.268Z,72.10
2019-02-05T12:21:17.644Z,71.80
2019-02-05T12:23:47.160Z,71.30
2019-02-05T12:26:16.556Z,71.50
2019-02-05T12:28:46.165Z,71.40
2019-02-05T12:31:15.527Z,71.60
2019-02-05T12:33:44.900Z,71.90
2019-02-05T12:36:14.407Z,71.60
2019-02-05T12:38:43.791Z,70.80
2019-02-05T12:41:13.209Z,71.40
2019-02-05T12:43:42.603Z,72.30
2019-02-05T12:46:12.147Z,71.50
2019-02-05T12:48:41.503Z,71.60
2019-02-05T12:51:10.921Z,71.40
2019-02-05T12:53:40.328Z,71.30
2019-02-05T12:56:09.705Z,71.00
2019-02-05T12:58:39.115Z,70.60
2019-02-05T13:01:08.783Z,70.20
2019-02-05T13:03:38.168Z,70.40
2019-02-05T13:06:07.644Z,70.50
2019-02-05T13:08:37.050Z,70.50
2019-02-05T13:11:06.544Z,71.20
2019-02-05T13:13:36.179Z,71.40
2019-02-05T13:16:05.764Z,72.20
2019-02-05T13:18:35.155Z,73.00
2019-02-05T13:21:04.575Z,73.60
2019-02-05T13:23:33.951Z,74.10
2019-02-05T13:26:03.383Z,74.10
2019-02-05T13:28:32.759Z,73.20
2019-02-05T13:31:08.192Z,73.70
2019-02-05T13:33:33.188Z,74.70
2019-02-05T13:36:02.575Z,74.70
2019-02-05T13:38:31.966Z,74.20
2019-02-05T13:41:01.342Z,74.30
2019-02-05T13:43:30.795Z,74.60
2019-02-05T13:46:00.207Z,75.40
2019-02-05T13:48:29.552Z,76.00
2019-02-05T13:50:58.968Z,76.20
2019-02-05T13:53:28.352Z,76.20
2019-02-05T13:55:58.732Z,75.60
2019-02-05T13:58:28.145Z,75.40
2019-02-05T14:00:57.598Z,76.00
2019-02-05T14:03:26.976Z,76.30
2019-02-05T14:05:56.383Z,77.00
2019-02-05T14:08:25.771Z,77.20
2019-02-05T14:10:55.201Z,77.50
2019-02-05T14:13:24.596Z,77.70
2019-02-05T14:15:54.307Z,78.00
2019-02-05T14:18:23.728Z,77.70
2019-02-05T14:20:53.248Z,77.70
2019-02-05T14:23:22.742Z,76.90
2019-02-05T14:25:52.139Z,76.10
2019-02-05T14:28:21.508Z,75.60
2019-02-05T14:30:56.127Z,75.10
2019-02-05T14:33:27.003Z,74.60
2019-02-05T14:35:56.661Z,74.80
2019-02-05T14:38:26.360Z,74.70
2019-02-05T14:40:55.839Z,74.40
2019-02-05T14:43:25.541Z,74.00
2019-02-05T14:45:55.007Z,74.30
2019-02-05T14:48:24.613Z,74.20
2019-02-05T14:50:54.028Z,73.90
2019-02-05T14:53:23.403Z,73.60
2019-02-05T14:55:52.803Z,74.00
2019-02-05T14:58:22.491Z,74.00
2019-02-05T15:00:51.879Z,74.60
2019-02-05T15:03:21.307Z,75.40
2019-02-05T15:05:50.684Z,75.60
2019-02-05T15:08:20.481Z,75.50
2019-02-05T15:10:49.872Z,75.60
2019-02-05T15:13:19.264Z,75.40
2019-02-05T15:15:48.717Z,75.10
2019-02-05T15:18:20.187Z,74.80
2019-02-05T15:20:50.513Z,74.70
2019-02-05T15:23:20.387Z,74.70
2019-02-05T15:25:49.898Z,74.50
2019-02-05T15:28:19.383Z,74.40
2019-02-05T15:30:48.719Z,74.40
2019-02-05T15:33:35.308Z,74.60
2019-02-05T15:36:33.056Z,74.70
2019-02-05T15:39:02.621Z,75.10
2019-02-05T15:41:32.008Z,75.60
2019-02-05T15:44:01.537Z,75.70
2019-02-05T15:46:31.929Z,76.00
2019-02-05T15:49:01.309Z,76.30
2019-02-05T15:51:30.717Z,76.50
2019-02-05T15:54:00.120Z,76.60
2019-02-05T15:56:29.615Z,76.90
2019-02-05T15:58:59.071Z,77.00
2019-02-05T16:01:28.784Z,77.00
2019-02-05T16:03:58.169Z,77.10
2019-02-05T16:06:27.547Z,77.20
2019-02-05T16:08:56.964Z,77.30
2019-02-05T16:11:26.332Z,77.30
2019-02-05T16:13:55.719Z,77.30
2019-02-05T16:16:25.397Z,77.30
2019-02-05T16:18:54.802Z,77.50
2019-02-05T16:21:24.160Z,77.60
2019-02-05T16:23:53.559Z,77.50
2019-02-05T16:26:22.940Z,77.50
2019-02-05T16:28:52.344Z,77.60
2019-02-05T16:31:22.055Z,77.60
2019-02-05T16:33:51.443Z,77.70
2019-02-05T16:36:20.846Z,77.60
2019-02-05T16:38:50.216Z,77.50
2019-02-05T16:41:19.723Z,77.40
2019-02-05T16:43:49.119Z,77.60
2019-02-05T16:46:18.724Z,77.90
2019-02-05T16:48:48.115Z,78.00
2019-02-05T16:51:17.499Z,78.00
2019-02-05T16:53:46.911Z,78.00
2019-02-05T16:56:17.882Z,77.80
2019-02-05T16:58:47.500Z,77.60
2019-02-05T17:01:17.201Z,77.70
2019-02-05T17:03:46.706Z,77.80
2019-02-05T17:06:16.094Z,78.20
2019-02-05T17:08:45.507Z,78.40
2019-02-05T17:11:14.923Z,78.60
2019-02-05T17:13:44.343Z,78.50
2019-02-05T17:16:13.942Z,78.60
2019-02-05T17:18:43.315Z,78.70
2019-02-05T17:21:12.807Z,78.80
2019-02-05T17:23:42.186Z,79.10
2019-02-05T17:26:11.579Z,79.50
2019-02-05T17:28:41.003Z,79.60
2019-02-05T17:31:10.587Z,79.60
2019-02-05T17:33:39.988Z,79.70
2019-02-05T17:36:09.369Z,79.70
2019-02-05T17:38:38.872Z,79.90
2019-02-05T17:41:08.332Z,80.20
2019-02-05T17:43:37.760Z,80.80
2019-02-05T17:46:07.327Z,81.40
2019-02-05T17:48:36.715Z,82.00
2019-02-05T17:51:06.121Z,82.50
2019-02-05T17:53:35.497Z,83.00
2019-02-05T17:56:05.071Z,83.40
2019-02-05T17:58:34.464Z,83.20
2019-02-05T18:01:09.228Z,83.00
2019-02-05T18:03:38.693Z,82.70
2019-02-05T18:06:08.489Z,82.50
2019-02-05T18:08:37.907Z,82.60
2019-02-05T18:11:07.727Z,82.90
2019-02-05T18:13:37.155Z,83.00
2019-02-05T18:16:17.469Z,83.30
2019-02-05T18:18:46.886Z,83.80
2019-02-05T18:21:16.295Z,84.10
2019-02-05T18:23:45.667Z,84.00
2019-02-05T18:26:15.071Z,84.10
2019-02-05T18:28:44.443Z,84.20
2019-02-05T18:31:13.870Z,84.10
2019-02-05T18:33:43.245Z,83.90
2019-02-05T18:36:12.968Z,83.70
2019-02-05T18:38:42.372Z,83.60
2019-02-05T18:41:11.743Z,83.70
2019-02-05T18:43:41.172Z,83.70
2019-02-05T18:46:12.696Z,83.90
2019-02-05T18:48:41.888Z,84.10
2019-02-05T18:51:11.218Z,84.10
2019-02-05T18:53:40.637Z,83.90
2019-02-05T18:56:10.420Z,83.20
2019-02-05T18:58:39.813Z,82.50
2019-02-05T19:01:09.218Z,82.00
2019-02-05T19:03:38.856Z,81.60
2019-02-05T19:06:08.348Z,81.40
2019-02-05T19:08:37.747Z,81.20
2019-02-05T19:11:07.219Z,81.10
2019-02-05T19:13:36.601Z,81.30
2019-02-05T19:16:06.106Z,81.40
2019-02-05T19:18:35.526Z,81.50
2019-02-05T19:21:05.187Z,81.80
2019-02-05T19:23:34.604Z,82.30
2019-02-05T19:26:16.772Z,82.60
2019-02-05T19:28:46.175Z,82.60
2019-02-05T19:31:26.538Z,82.50
2019-02-05T19:33:55.935Z,82.50
2019-02-05T19:36:25.607Z,82.50
2019-02-05T19:38:55.106Z,82.30
2019-02-05T19:41:24.486Z,82.10
2019-02-05T19:43:53.891Z,81.90
2019-02-05T19:46:41.117Z,82.00
2019-02-05T19:49:22.944Z,81.90
2019-02-05T19:51:52.323Z,82.20
2019-02-05T19:54:21.999Z,82.30
2019-02-05T19:56:51.406Z,82.50
2019-02-05T19:59:21.204Z,82.50
2019-02-05T20:01:50.638Z,82.40
2019-02-05T20:04:20.022Z,82.50
2019-02-05T20:06:49.402Z,82.60
2019-02-05T20:09:18.788Z,82.50
2019-02-05T20:11:48.211Z,82.60
2019-02-05T20:14:17.586Z,82.40
2019-02-05T20:16:46.967Z,82.30
2019-02-05T20:19:16.372Z,82.30
2019-02-05T20:21:46.115Z,82.60
2019-02-05T20:24:15.536Z,82.70
2019-02-05T20:26:47.549Z,82.80
2019-02-05T20:29:16.011Z,82.60
2019-02-05T20:31:45.402Z,82.50
2019-02-05T20:34:14.764Z,82.50
2019-02-05T20:36:44.359Z,82.60
2019-02-05T20:39:15.728Z,82.60
2019-02-05T20:41:45.131Z,82.80
2019-02-05T20:44:14.533Z,82.90
2019-02-05T20:46:44.032Z,82.90
2019-02-05T20:49:13.446Z,82.70
2019-02-05T20:51:42.837Z,83.00
2019-02-05T20:54:12.255Z,83.20
2019-02-05T20:56:41.705Z,83.70
2019-02-05T20:59:11.131Z,83.60
2019-02-05T21:01:40.503Z,83.60
2019-02-05T21:04:09.905Z,83.40
2019-02-05T21:06:39.274Z,83.40
2019-02-05T21:09:19.140Z,83.70
2019-02-05T21:11:48.640Z,83.40
2019-02-05T21:14:18.243Z,83.50
2019-02-05T21:16:47.851Z,83.60
2019-02-05T21:19:17.187Z,83.60
2019-02-05T21:21:46.624Z,83.40
2019-02-05T21:24:16.003Z,83.60
2019-02-05T21:26:45.423Z,83.50
2019-02-05T21:29:14.806Z,83.40
2019-02-05T21:31:44.215Z,83.40
2019-02-05T21:34:15.295Z,83.40
2019-02-05T21:36:44.707Z,83.20
2019-02-05T21:39:14.292Z,82.90
2019-02-05T21:41:43.669Z,82.70
2019-02-05T21:44:13.099Z,82.60
2019-02-05T21:46:42.469Z,82.70
2019-02-05T21:49:11.943Z,82.70
2019-02-05T21:51:41.718Z,82.70
2019-02-05T21:54:12.491Z,82.80
2019-02-05T21:56:41.883Z,82.80
2019-02-05T21:59:11.251Z,83.00
2019-02-05T22:01:40.706Z,82.90
2019-02-05T22:04:10.331Z,82.80
2019-02-05T22:06:39.966Z,83.00
2019-02-05T22:09:12.118Z,83.10
2019-02-05T22:11:41.505Z,83.10
2019-02-05T22:14:10.923Z,83.10
2019-02-05T22:16:40.356Z,83.10
2019-02-05T22:19:10.603Z,83.20
2019-02-05T22:21:40.181Z,83.10
2019-02-05T22:24:10.143Z,83.10
2019-02-05T22:26:40.014Z,83.30
2019-02-05T22:29:10.005Z,83.30
2019-02-05T22:31:39.404Z,83.30
2019-02-05T22:34:09.595Z,83.70
2019-02-05T22:36:39.151Z,84.20
2019-02-05T22:39:10.493Z,84.40
2019-02-05T22:41:40.415Z,84.30
2019-02-05T22:44:09.795Z,84.10
2019-02-05T22:46:39.435Z,83.90
2019-02-05T22:49:08.971Z,83.70
2019-02-05T22:51:38.613Z,83.50
2019-02-05T22:54:07.999Z,83.20
2019-02-05T22:56:37.387Z,83.40
2019-02-05T22:59:07.083Z,83.80
2019-02-05T23:01:57.883Z,84.40
2019-02-05T23:05:12.980Z,84.40
2019-02-05T23:07:42.404Z,84.20
2019-02-05T23:11:03.554Z,84.10
2019-02-05T23:13:27.239Z,83.80
2019-02-05T23:15:56.859Z,83.60
2019-02-05T23:18:26.287Z,83.80
2019-02-05T23:20:55.683Z,83.70
2019-02-05T23:23:25.098Z,83.60
2019-02-05T23:25:54.506Z,83.70
2019-02-05T23:28:23.931Z,83.70
2019-02-05T23:30:53.616Z,83.70
2019-02-05T23:33:23.028Z,83.70
2019-02-05T23:35:52.931Z,83.50
2019-02-05T23:38:29.471Z,83.40
2019-02-05T23:40:53.436Z,83.40
2019-02-05T23:43:22.825Z,83.60
2019-02-05T23:46:01.393Z,83.70
2019-02-05T23:48:23.564Z,83.50
2019-02-05T23:50:52.991Z,83.40
2019-02-05T23:53:22.368Z,83.20
2019-02-05T23:55:51.811Z,83.30
2019-02-05T23:58:21.203Z,83.40
